Weather

Partly Cloudy
Tuesday 11/21 0%
Partly Cloudy
Sun and clouds mixed. High 67F. Winds N at 5 to 10 mph.
Clear
Wednesday 11/22 0%
Clear
Abundant sunshine. High 63F. Winds light and variable.
Clear
Thursday 11/23 0%
Clear
Sunshine. High 68F. Winds WNW at 5 to 10 mph.
Partly Cloudy
Friday 11/24 0%
Partly Cloudy
Intervals of clouds and sunshine. High around 70F. Winds W at 5 to 10 mph.
Clear
Saturday 11/25 0%
Clear
Mainly sunny. High 71F. Winds light and variable.

 

 

For a detailed forecast click the banner below.

ballooncastlogo

 

 

Available data for KABQ from the past 2 hours
ALBUQUERQUE, NM
Metar
KABQ 212052Z 09004KT 10SM BKN350 17/M09 A3024 RMK AO2 SLP198 T01671094 56010

20:52 UTC

Wind: 90° 4kt

Visibility: 10 SM

Sky: BKN 35000 ft

Temp: 17 deg C / 62.6 deg F

Dewpoint: -9 deg C / 15.8 deg F

Pressure: 30.24 inHg

TAF
KABQ 211720Z 2118/2218 36011KT P6SM BKN250 FM220000 03008KT P6SM BKN250 FM220200 08011KT P6SM SCT250 FM220900 03005KT P6SM SCT250